EWG6LN EDDL-LGIR
Flight info
| Callsign | EWG6LN |
|---|---|
| Flight time | 3h 1m |
| Altitude | 37000 |
| Route | DODEN1T/23L DODEN Y853 BOMBI DCT DETEV DCT DINKU M867 XERUM DCT BAVAX DCT RADIZ DCT NEMEK DCT VRANA DCT PETAK DCT PINDO UL607 GIVIS T514 XAVIS XAVIS1A |
| Aircraft | A21N/M-SDE2E3FGIJ1LORWXYZ/HB1 |
Departure
| Time | 2026-05-05 12:35 |
|---|---|
| Airport | Düsseldorf Airport (EDDL) |
Arrival
| Time | 2026-05-05 15:36 |
|---|---|
| Airport | Heraklion International Nikos Kazantzakis Airport (LGIR) |
| Time | Latitude | Longitude | Altitude | Speed | Heading |
|---|---|---|---|---|---|
| 2026-05-05 11:30 | 51.27942 | 6.76166 | 136 ft | 0 kts | 91° |
| 2026-05-05 12:20 | 51.27942 | 6.76162 | 136 ft | 3 kts | 91° |
| 2026-05-05 12:20 | 51.27943 | 6.76120 | 136 ft | 4 kts | 91° |
| 2026-05-05 12:21 | 51.27943 | 6.76086 | 136 ft | 4 kts | 91° |
| 2026-05-05 12:21 | 51.27941 | 6.76056 | 136 ft | 4 kts | 37° |
| 2026-05-05 12:21 | 51.27920 | 6.76048 | 136 ft | 3 kts | 1° |
| 2026-05-05 12:21 | 51.27894 | 6.76047 | 136 ft | 3 kts | 1° |
| 2026-05-05 12:22 | 51.27890 | 6.76046 | 136 ft | 0 kts | 1° |
| 2026-05-05 12:25 | 51.27891 | 6.76046 | 136 ft | 1 kts | 1° |
| 2026-05-05 12:25 | 51.27911 | 6.76047 | 136 ft | 4 kts | 1° |
| 2026-05-05 12:26 | 51.27950 | 6.76048 | 136 ft | 7 kts | 1° |
| 2026-05-05 12:26 | 51.28002 | 6.76050 | 135 ft | 8 kts | 1° |
| 2026-05-05 12:26 | 51.28065 | 6.76048 | 135 ft | 10 kts | 357° |
| 2026-05-05 12:26 | 51.28133 | 6.76028 | 135 ft | 11 kts | 38° |
| 2026-05-05 12:27 | 51.28184 | 6.76135 | 134 ft | 13 kts | 53° |
| 2026-05-05 12:27 | 51.28244 | 6.76260 | 133 ft | 14 kts | 52° |
| 2026-05-05 12:27 | 51.28286 | 6.76347 | 133 ft | 11 kts | 52° |
| 2026-05-05 12:27 | 51.28338 | 6.76455 | 131 ft | 13 kts | 52° |
| 2026-05-05 12:28 | 51.28395 | 6.76575 | 131 ft | 14 kts | 53° |
| 2026-05-05 12:28 | 51.28460 | 6.76713 | 132 ft | 17 kts | 53° |
| 2026-05-05 12:28 | 51.28536 | 6.76871 | 134 ft | 19 kts | 52° |
| 2026-05-05 12:28 | 51.28617 | 6.77041 | 135 ft | 20 kts | 52° |
| 2026-05-05 12:29 | 51.28702 | 6.77221 | 135 ft | 21 kts | 53° |
| 2026-05-05 12:29 | 51.28792 | 6.77409 | 135 ft | 22 kts | 52° |
| 2026-05-05 12:29 | 51.28887 | 6.77608 | 135 ft | 23 kts | 52° |
| 2026-05-05 12:29 | 51.28985 | 6.77814 | 135 ft | 24 kts | 52° |
| 2026-05-05 12:30 | 51.29089 | 6.78031 | 137 ft | 25 kts | 53° |
| 2026-05-05 12:30 | 51.29192 | 6.78249 | 144 ft | 18 kts | 53° |
| 2026-05-05 12:30 | 51.29266 | 6.78403 | 150 ft | 17 kts | 52° |
| 2026-05-05 12:30 | 51.29323 | 6.78521 | 155 ft | 12 kts | 48° |
| 2026-05-05 12:31 | 51.29387 | 6.78572 | 157 ft | 11 kts | 359° |
| 2026-05-05 12:31 | 51.29432 | 6.78567 | 158 ft | 0 kts | 355° |
| 2026-05-05 12:33 | 51.29440 | 6.78566 | 158 ft | 3 kts | 355° |
| 2026-05-05 12:33 | 51.29470 | 6.78563 | 158 ft | 6 kts | 356° |
| 2026-05-05 12:33 | 51.29515 | 6.78535 | 159 ft | 9 kts | 310° |
| 2026-05-05 12:33 | 51.29514 | 6.78461 | 157 ft | 3 kts | 233° |
| 2026-05-05 12:34 | 51.29513 | 6.78459 | 157 ft | 0 kts | 233° |
| 2026-05-05 12:34 | 51.29503 | 6.78437 | 156 ft | 14 kts | 233° |
| 2026-05-05 12:34 | 51.29265 | 6.77944 | 145 ft | 96 kts | 231° |
| 2026-05-05 12:35 | 51.28720 | 6.76795 | 138 ft | 160 kts | 234° |
| 2026-05-05 12:35 | 51.28037 | 6.75362 | 666 ft | 162 kts | 238° |
| 2026-05-05 12:35 | 51.27328 | 6.73868 | 1223 ft | 174 kts | 236° |
| 2026-05-05 12:35 | 51.26553 | 6.72247 | 1676 ft | 195 kts | 234° |
| 2026-05-05 12:36 | 51.25715 | 6.70412 | 2248 ft | 212 kts | 235° |
| 2026-05-05 12:36 | 51.24802 | 6.68428 | 2792 ft | 235 kts | 234° |
| 2026-05-05 12:36 | 51.23785 | 6.66246 | 3329 ft | 255 kts | 231° |
| 2026-05-05 12:36 | 51.22464 | 6.64318 | 4118 ft | 262 kts | 209° |
| 2026-05-05 12:37 | 51.20728 | 6.63495 | 5011 ft | 263 kts | 182° |
| 2026-05-05 12:37 | 51.18897 | 6.63677 | 5923 ft | 266 kts | 173° |
| 2026-05-05 12:37 | 51.17053 | 6.64054 | 6823 ft | 267 kts | 171° |
| 2026-05-05 12:37 | 51.15279 | 6.64950 | 7714 ft | 270 kts | 152° |
| 2026-05-05 12:38 | 51.13848 | 6.66894 | 8561 ft | 276 kts | 128° |
| 2026-05-05 12:38 | 51.13036 | 6.69682 | 9401 ft | 284 kts | 103° |
| 2026-05-05 12:38 | 51.12970 | 6.72848 | 10227 ft | 290 kts | 88° |
| 2026-05-05 12:38 | 51.13151 | 6.76083 | 10933 ft | 299 kts | 87° |
| 2026-05-05 12:39 | 51.13340 | 6.79498 | 11310 ft | 320 kts | 87° |
| 2026-05-05 12:39 | 51.13509 | 6.83091 | 11733 ft | 336 kts | 88° |
| 2026-05-05 12:39 | 51.13665 | 6.86871 | 12462 ft | 342 kts | 88° |
| 2026-05-05 12:39 | 51.13816 | 6.90676 | 13244 ft | 347 kts | 88° |
| 2026-05-05 12:40 | 51.13961 | 6.94540 | 13972 ft | 351 kts | 88° |
| 2026-05-05 12:40 | 51.14069 | 6.98435 | 14662 ft | 354 kts | 94° |
| 2026-05-05 12:40 | 51.13564 | 7.02241 | 15355 ft | 353 kts | 114° |
| 2026-05-05 12:40 | 51.12331 | 7.05617 | 16051 ft | 353 kts | 128° |
| 2026-05-05 12:41 | 51.10798 | 7.08672 | 16743 ft | 356 kts | 131° |
| 2026-05-05 12:41 | 51.09213 | 7.11725 | 17427 ft | 359 kts | 131° |
| 2026-05-05 12:41 | 51.07628 | 7.14834 | 18107 ft | 363 kts | 130° |
| 2026-05-05 12:41 | 51.06076 | 7.17949 | 18678 ft | 367 kts | 130° |
| 2026-05-05 12:42 | 51.04465 | 7.21203 | 19277 ft | 370 kts | 130° |
| 2026-05-05 12:42 | 51.02899 | 7.24370 | 19860 ft | 373 kts | 130° |
| 2026-05-05 12:42 | 51.01282 | 7.27635 | 20460 ft | 376 kts | 130° |
| 2026-05-05 12:42 | 50.99657 | 7.30913 | 21041 ft | 378 kts | 130° |
| 2026-05-05 12:43 | 50.98032 | 7.34201 | 21608 ft | 381 kts | 130° |
| 2026-05-05 12:43 | 50.96390 | 7.37517 | 22180 ft | 383 kts | 130° |
| 2026-05-05 12:43 | 50.94729 | 7.40855 | 22706 ft | 387 kts | 130° |
| 2026-05-05 12:43 | 50.93050 | 7.44226 | 23163 ft | 393 kts | 131° |
| 2026-05-05 12:44 | 50.91354 | 7.47634 | 23564 ft | 392 kts | 131° |
| 2026-05-05 12:44 | 50.89699 | 7.50958 | 23895 ft | 378 kts | 131° |
| 2026-05-05 12:44 | 50.88071 | 7.54215 | 24219 ft | 378 kts | 131° |
| 2026-05-05 12:44 | 50.86432 | 7.57488 | 24583 ft | 381 kts | 131° |
| 2026-05-05 12:45 | 50.84781 | 7.60783 | 24939 ft | 383 kts | 131° |
| 2026-05-05 12:45 | 50.83116 | 7.64100 | 25306 ft | 385 kts | 131° |
| 2026-05-05 12:45 | 50.81443 | 7.67432 | 25683 ft | 388 kts | 132° |
| 2026-05-05 12:45 | 50.79756 | 7.70786 | 26061 ft | 391 kts | 132° |
| 2026-05-05 12:46 | 50.78056 | 7.74163 | 26447 ft | 394 kts | 132° |
| 2026-05-05 12:46 | 50.76342 | 7.77557 | 26839 ft | 397 kts | 132° |
| 2026-05-05 12:46 | 50.74619 | 7.80966 | 27231 ft | 393 kts | 133° |
| 2026-05-05 12:46 | 50.72960 | 7.84253 | 27605 ft | 376 kts | 133° |
| 2026-05-05 12:47 | 50.71333 | 7.87465 | 28002 ft | 376 kts | 133° |
| 2026-05-05 12:47 | 50.69702 | 7.90686 | 28408 ft | 377 kts | 133° |
| 2026-05-05 12:47 | 50.68062 | 7.93917 | 28819 ft | 377 kts | 133° |
| 2026-05-05 12:47 | 50.66422 | 7.97144 | 29212 ft | 377 kts | 134° |
| 2026-05-05 12:48 | 50.64772 | 8.00379 | 29574 ft | 379 kts | 134° |
| 2026-05-05 12:48 | 50.63119 | 8.03618 | 29888 ft | 382 kts | 134° |
| 2026-05-05 12:48 | 50.61450 | 8.06893 | 30126 ft | 384 kts | 134° |
| 2026-05-05 12:48 | 50.59665 | 8.10005 | 30376 ft | 381 kts | 142° |
| 2026-05-05 12:49 | 50.57691 | 8.12720 | 30629 ft | 370 kts | 146° |
| 2026-05-05 12:49 | 50.55732 | 8.15283 | 30836 ft | 365 kts | 146° |
| 2026-05-05 12:49 | 50.53768 | 8.17826 | 31048 ft | 367 kts | 146° |
| 2026-05-05 12:49 | 50.51790 | 8.20395 | 31290 ft | 369 kts | 146° |
| 2026-05-05 12:50 | 50.49814 | 8.22971 | 31542 ft | 370 kts | 146° |
| 2026-05-05 12:50 | 50.47833 | 8.25559 | 31802 ft | 371 kts | 146° |
| 2026-05-05 12:50 | 50.45851 | 8.28145 | 32058 ft | 372 kts | 146° |
| 2026-05-05 12:50 | 50.43859 | 8.30739 | 32288 ft | 373 kts | 146° |
| 2026-05-05 12:51 | 50.41853 | 8.33350 | 32523 ft | 375 kts | 146° |
| 2026-05-05 12:51 | 50.39843 | 8.35965 | 32716 ft | 377 kts | 146° |
| 2026-05-05 12:51 | 50.37817 | 8.38601 | 32845 ft | 382 kts | 146° |
| 2026-05-05 12:51 | 50.35750 | 8.41284 | 32870 ft | 390 kts | 146° |
| 2026-05-05 12:52 | 50.31481 | 8.46814 | 32841 ft | 406 kts | 146° |
| 2026-05-05 12:52 | 50.27076 | 8.52510 | 32832 ft | 422 kts | 146° |
| 2026-05-05 12:53 | 50.22460 | 8.58461 | 33174 ft | 429 kts | 146° |
| 2026-05-05 12:53 | 50.20162 | 8.61428 | 33537 ft | 427 kts | 146° |
| 2026-05-05 12:53 | 50.17906 | 8.64336 | 33862 ft | 425 kts | 146° |
| 2026-05-05 12:54 | 50.13321 | 8.70222 | 34374 ft | 424 kts | 146° |
| 2026-05-05 12:54 | 50.11041 | 8.73139 | 34619 ft | 423 kts | 146° |
| 2026-05-05 12:54 | 50.08802 | 8.76005 | 34815 ft | 424 kts | 146° |
| 2026-05-05 12:55 | 50.06597 | 8.79120 | 34869 ft | 433 kts | 138° |
| 2026-05-05 12:55 | 50.04754 | 8.82912 | 34860 ft | 446 kts | 126° |
| 2026-05-05 12:55 | 50.03320 | 8.87218 | 34848 ft | 451 kts | 121° |
| 2026-05-05 12:56 | 50.00647 | 8.96058 | 34819 ft | 451 kts | 121° |
| 2026-05-05 12:56 | 49.97913 | 9.04820 | 34809 ft | 449 kts | 124° |
| 2026-05-05 12:56 | 49.96149 | 9.08753 | 34807 ft | 439 kts | 137° |
| 2026-05-05 12:57 | 49.94055 | 9.12170 | 34799 ft | 437 kts | 140° |
| 2026-05-05 12:57 | 49.89741 | 9.18856 | 34808 ft | 439 kts | 140° |
| 2026-05-05 12:58 | 49.85443 | 9.25599 | 34999 ft | 440 kts | 140° |
| 2026-05-05 12:58 | 49.83300 | 9.28958 | 35289 ft | 436 kts | 140° |
| 2026-05-05 12:58 | 49.81181 | 9.32278 | 35636 ft | 431 kts | 139° |
| 2026-05-05 12:58 | 49.79088 | 9.35563 | 35944 ft | 428 kts | 139° |
| 2026-05-05 12:59 | 49.77003 | 9.38833 | 36219 ft | 425 kts | 139° |
| 2026-05-05 12:59 | 49.74941 | 9.42069 | 36475 ft | 422 kts | 139° |
| 2026-05-05 12:59 | 49.72884 | 9.45286 | 36731 ft | 419 kts | 139° |
| 2026-05-05 13:00 | 49.68772 | 9.51704 | 36833 ft | 423 kts | 139° |
| 2026-05-05 13:00 | 49.66696 | 9.54934 | 36838 ft | 426 kts | 139° |
| 2026-05-05 13:01 | 49.58288 | 9.67980 | 36817 ft | 429 kts | 139° |
| 2026-05-05 13:01 | 49.54108 | 9.74432 | 36816 ft | 427 kts | 139° |
| 2026-05-05 13:02 | 49.49912 | 9.80908 | 36820 ft | 427 kts | 139° |
| 2026-05-05 13:02 | 49.45705 | 9.87378 | 36801 ft | 428 kts | 139° |
| 2026-05-05 13:03 | 49.41473 | 9.93860 | 36813 ft | 429 kts | 140° |
| 2026-05-05 13:03 | 49.37233 | 10.00329 | 36819 ft | 430 kts | 139° |
| 2026-05-05 13:04 | 49.33001 | 10.06789 | 36813 ft | 429 kts | 139° |
| 2026-05-05 13:04 | 49.28767 | 10.13227 | 36815 ft | 429 kts | 139° |
| 2026-05-05 13:05 | 49.25238 | 10.18590 | 36821 ft | 429 kts | 139° |
| 2026-05-05 13:05 | 49.20991 | 10.25025 | 36805 ft | 431 kts | 140° |
| 2026-05-05 13:06 | 49.16714 | 10.31483 | 36830 ft | 430 kts | 139° |
| 2026-05-05 13:06 | 49.12444 | 10.37920 | 36837 ft | 431 kts | 140° |
| 2026-05-05 13:07 | 49.08173 | 10.44341 | 36831 ft | 431 kts | 140° |
| 2026-05-05 13:07 | 49.03895 | 10.50762 | 36833 ft | 432 kts | 139° |
| 2026-05-05 13:08 | 48.99616 | 10.57170 | 36840 ft | 432 kts | 139° |
| 2026-05-05 13:08 | 48.95314 | 10.63591 | 36818 ft | 435 kts | 140° |
| 2026-05-05 13:09 | 48.91001 | 10.70002 | 36820 ft | 434 kts | 140° |
| 2026-05-05 13:09 | 48.86687 | 10.76392 | 36809 ft | 433 kts | 140° |
| 2026-05-05 13:10 | 48.82377 | 10.82784 | 36807 ft | 433 kts | 140° |
| 2026-05-05 13:10 | 48.78052 | 10.89171 | 36791 ft | 434 kts | 140° |
| 2026-05-05 13:11 | 48.73715 | 10.95557 | 36777 ft | 435 kts | 140° |
| 2026-05-05 13:11 | 48.69346 | 11.01974 | 36791 ft | 441 kts | 140° |
| 2026-05-05 13:12 | 48.64960 | 11.08400 | 36787 ft | 441 kts | 140° |
| 2026-05-05 13:12 | 48.60546 | 11.14851 | 36787 ft | 443 kts | 140° |
| 2026-05-05 13:13 | 48.56114 | 11.21312 | 36788 ft | 442 kts | 140° |
| 2026-05-05 13:13 | 48.51672 | 11.27772 | 36779 ft | 443 kts | 140° |
| 2026-05-05 13:14 | 48.47211 | 11.34237 | 36773 ft | 447 kts | 140° |
| 2026-05-05 13:14 | 48.42740 | 11.40705 | 36780 ft | 445 kts | 140° |
| 2026-05-05 13:15 | 48.38275 | 11.47149 | 36782 ft | 445 kts | 140° |
| 2026-05-05 13:15 | 48.33802 | 11.53587 | 36783 ft | 444 kts | 140° |
| 2026-05-05 13:16 | 48.29332 | 11.60002 | 36783 ft | 445 kts | 140° |
| 2026-05-05 13:16 | 48.24879 | 11.66369 | 36779 ft | 446 kts | 140° |
| 2026-05-05 13:17 | 48.20378 | 11.72801 | 36781 ft | 445 kts | 140° |
| 2026-05-05 13:17 | 48.15872 | 11.79221 | 36778 ft | 446 kts | 140° |
| 2026-05-05 13:18 | 48.11365 | 11.85623 | 36772 ft | 447 kts | 140° |
| 2026-05-05 13:18 | 48.06853 | 11.92018 | 36769 ft | 448 kts | 140° |
| 2026-05-05 13:19 | 48.02341 | 11.98397 | 36744 ft | 448 kts | 140° |
| 2026-05-05 13:19 | 47.97785 | 12.04820 | 36771 ft | 450 kts | 140° |
| 2026-05-05 13:20 | 47.93262 | 12.11184 | 36761 ft | 445 kts | 140° |
| 2026-05-05 13:20 | 47.88754 | 12.17508 | 36762 ft | 442 kts | 140° |
| 2026-05-05 13:21 | 47.84264 | 12.23785 | 36764 ft | 443 kts | 141° |
| 2026-05-05 13:21 | 47.79760 | 12.30072 | 36767 ft | 443 kts | 141° |
| 2026-05-05 13:22 | 47.75273 | 12.36321 | 36765 ft | 444 kts | 141° |
| 2026-05-05 13:22 | 47.70752 | 12.42599 | 36771 ft | 444 kts | 141° |
| 2026-05-05 13:23 | 47.66237 | 12.48858 | 36772 ft | 443 kts | 141° |
| 2026-05-05 13:23 | 47.61722 | 12.55105 | 36783 ft | 445 kts | 140° |
| 2026-05-05 13:24 | 47.57290 | 12.61394 | 36776 ft | 444 kts | 140° |
| 2026-05-05 13:24 | 47.52778 | 12.67795 | 36765 ft | 445 kts | 140° |
| 2026-05-05 13:25 | 47.48280 | 12.74147 | 36778 ft | 449 kts | 140° |
| 2026-05-05 13:25 | 47.43765 | 12.80496 | 36793 ft | 447 kts | 140° |
| 2026-05-05 13:26 | 47.39259 | 12.86817 | 36806 ft | 448 kts | 140° |
| 2026-05-05 13:26 | 47.34747 | 12.93134 | 36821 ft | 447 kts | 140° |
| 2026-05-05 13:27 | 47.30260 | 12.99404 | 36833 ft | 449 kts | 140° |
| 2026-05-05 13:27 | 47.25726 | 13.05728 | 36831 ft | 449 kts | 140° |
| 2026-05-05 13:28 | 47.21176 | 13.12045 | 36881 ft | 450 kts | 140° |
| 2026-05-05 13:28 | 47.16630 | 13.18341 | 36857 ft | 448 kts | 140° |
| 2026-05-05 13:29 | 47.12080 | 13.24639 | 36875 ft | 449 kts | 140° |
| 2026-05-05 13:29 | 47.07524 | 13.30928 | 36896 ft | 452 kts | 140° |
| 2026-05-05 13:30 | 47.02964 | 13.37204 | 36904 ft | 450 kts | 140° |
| 2026-05-05 13:30 | 46.98401 | 13.43465 | 36927 ft | 450 kts | 141° |
| 2026-05-05 13:31 | 46.93851 | 13.49703 | 36923 ft | 448 kts | 140° |
| 2026-05-05 13:31 | 46.89292 | 13.55924 | 36937 ft | 448 kts | 141° |
| 2026-05-05 13:32 | 46.84731 | 13.62146 | 36932 ft | 451 kts | 140° |
| 2026-05-05 13:32 | 46.80148 | 13.68406 | 36939 ft | 450 kts | 141° |
| 2026-05-05 13:33 | 46.75567 | 13.74625 | 36934 ft | 450 kts | 140° |
| 2026-05-05 13:33 | 46.70963 | 13.80844 | 36943 ft | 452 kts | 141° |
| 2026-05-05 13:34 | 46.66362 | 13.87053 | 36946 ft | 451 kts | 141° |
| 2026-05-05 13:34 | 46.61752 | 13.93260 | 36933 ft | 451 kts | 141° |
| 2026-05-05 13:35 | 46.57139 | 13.99456 | 36949 ft | 452 kts | 141° |
| 2026-05-05 13:35 | 46.52526 | 14.05642 | 36944 ft | 452 kts | 141° |
| 2026-05-05 13:36 | 46.47909 | 14.11810 | 36957 ft | 456 kts | 141° |
| 2026-05-05 13:36 | 46.43259 | 14.18020 | 36959 ft | 454 kts | 141° |
| 2026-05-05 13:37 | 46.38609 | 14.24201 | 36990 ft | 454 kts | 141° |
| 2026-05-05 13:37 | 46.33940 | 14.30396 | 37007 ft | 456 kts | 141° |
| 2026-05-05 13:38 | 46.29275 | 14.36565 | 37023 ft | 454 kts | 141° |
| 2026-05-05 13:38 | 46.24615 | 14.42717 | 37024 ft | 454 kts | 141° |
| 2026-05-05 13:39 | 46.19946 | 14.48871 | 37022 ft | 454 kts | 141° |
| 2026-05-05 13:39 | 46.15287 | 14.54998 | 37021 ft | 453 kts | 141° |
| 2026-05-05 13:40 | 46.10620 | 14.61117 | 37013 ft | 453 kts | 141° |
| 2026-05-05 13:40 | 46.05985 | 14.67178 | 37001 ft | 452 kts | 141° |
| 2026-05-05 13:41 | 46.01288 | 14.73305 | 36993 ft | 453 kts | 141° |
| 2026-05-05 13:41 | 45.96635 | 14.79363 | 36988 ft | 454 kts | 141° |
| 2026-05-05 13:42 | 45.91959 | 14.85437 | 36977 ft | 453 kts | 141° |
| 2026-05-05 13:42 | 45.87282 | 14.91497 | 36975 ft | 453 kts | 141° |
| 2026-05-05 13:43 | 45.82595 | 14.97553 | 36974 ft | 453 kts | 141° |
| 2026-05-05 13:43 | 45.77912 | 15.03592 | 36983 ft | 453 kts | 141° |
| 2026-05-05 13:44 | 45.73221 | 15.09630 | 36979 ft | 454 kts | 141° |
| 2026-05-05 13:44 | 45.68518 | 15.15667 | 36981 ft | 454 kts | 141° |
| 2026-05-05 13:45 | 45.63814 | 15.21686 | 36979 ft | 455 kts | 141° |
| 2026-05-05 13:45 | 45.59109 | 15.27698 | 36983 ft | 453 kts | 141° |
| 2026-05-05 13:46 | 45.54418 | 15.33697 | 36982 ft | 453 kts | 141° |
| 2026-05-05 13:46 | 45.49724 | 15.39719 | 36979 ft | 455 kts | 141° |
| 2026-05-05 13:47 | 45.45011 | 15.45748 | 36980 ft | 455 kts | 141° |
| 2026-05-05 13:47 | 45.40302 | 15.51754 | 36977 ft | 455 kts | 141° |
| 2026-05-05 13:48 | 45.35616 | 15.57716 | 36980 ft | 455 kts | 141° |
| 2026-05-05 13:48 | 45.30893 | 15.63712 | 36974 ft | 455 kts | 141° |
| 2026-05-05 13:49 | 45.26169 | 15.69697 | 36986 ft | 456 kts | 141° |
| 2026-05-05 13:49 | 45.21426 | 15.75690 | 36988 ft | 457 kts | 141° |
| 2026-05-05 13:50 | 45.16682 | 15.81674 | 36985 ft | 457 kts | 141° |
| 2026-05-05 13:50 | 45.11929 | 15.87653 | 36991 ft | 456 kts | 141° |
| 2026-05-05 13:51 | 45.07175 | 15.93619 | 36980 ft | 455 kts | 141° |
| 2026-05-05 13:51 | 45.02442 | 15.99548 | 36977 ft | 457 kts | 141° |
| 2026-05-05 13:52 | 44.97663 | 16.05516 | 36989 ft | 458 kts | 141° |
| 2026-05-05 13:52 | 44.92903 | 16.11453 | 36987 ft | 456 kts | 141° |
| 2026-05-05 13:53 | 44.88140 | 16.17377 | 36996 ft | 456 kts | 141° |
| 2026-05-05 13:53 | 44.83379 | 16.23279 | 36998 ft | 455 kts | 141° |
| 2026-05-05 13:54 | 44.78618 | 16.29171 | 36997 ft | 457 kts | 142° |
| 2026-05-05 13:54 | 44.73840 | 16.35071 | 37007 ft | 457 kts | 142° |
| 2026-05-05 13:55 | 44.69061 | 16.40962 | 37007 ft | 457 kts | 142° |
| 2026-05-05 13:55 | 44.64275 | 16.46842 | 37007 ft | 459 kts | 142° |
| 2026-05-05 13:56 | 44.60298 | 16.51720 | 37009 ft | 456 kts | 142° |
| 2026-05-05 13:56 | 44.54732 | 16.58533 | 37015 ft | 458 kts | 142° |
| 2026-05-05 13:57 | 44.49927 | 16.64396 | 37015 ft | 458 kts | 142° |
| 2026-05-05 13:57 | 44.45898 | 16.69305 | 37027 ft | 459 kts | 142° |
| 2026-05-05 13:58 | 44.41079 | 16.75166 | 37031 ft | 457 kts | 142° |
| 2026-05-05 13:58 | 44.36273 | 16.80995 | 37039 ft | 457 kts | 142° |
| 2026-05-05 13:59 | 44.29050 | 16.89730 | 37036 ft | 459 kts | 142° |
| 2026-05-05 14:00 | 44.21799 | 16.98473 | 37039 ft | 459 kts | 142° |
| 2026-05-05 14:00 | 44.16948 | 17.04305 | 37049 ft | 460 kts | 142° |
| 2026-05-05 14:01 | 44.12111 | 17.10106 | 37044 ft | 459 kts | 142° |
| 2026-05-05 14:01 | 44.07264 | 17.15904 | 37038 ft | 461 kts | 143° |
| 2026-05-05 14:02 | 44.02388 | 17.21727 | 37050 ft | 462 kts | 143° |
| 2026-05-05 14:02 | 43.97508 | 17.27545 | 37052 ft | 463 kts | 142° |
| 2026-05-05 14:03 | 43.92606 | 17.33374 | 37056 ft | 464 kts | 142° |
| 2026-05-05 14:03 | 43.87718 | 17.39171 | 37066 ft | 463 kts | 143° |
| 2026-05-05 14:04 | 43.82821 | 17.44965 | 37054 ft | 463 kts | 143° |
| 2026-05-05 14:04 | 43.77923 | 17.50744 | 37065 ft | 463 kts | 143° |
| 2026-05-05 14:05 | 43.72871 | 17.56119 | 37062 ft | 460 kts | 149° |
| 2026-05-05 14:05 | 43.67562 | 17.61052 | 37068 ft | 460 kts | 150° |
| 2026-05-05 14:06 | 43.62244 | 17.65983 | 37068 ft | 460 kts | 149° |
| 2026-05-05 14:06 | 43.56920 | 17.70922 | 37070 ft | 461 kts | 149° |
| 2026-05-05 14:07 | 43.51589 | 17.75858 | 37076 ft | 463 kts | 149° |
| 2026-05-05 14:07 | 43.46242 | 17.80797 | 37066 ft | 463 kts | 149° |
| 2026-05-05 14:08 | 43.40897 | 17.85725 | 37082 ft | 463 kts | 149° |
| 2026-05-05 14:08 | 43.35543 | 17.90646 | 37085 ft | 463 kts | 149° |
| 2026-05-05 14:09 | 43.30180 | 17.95567 | 37085 ft | 465 kts | 150° |
| 2026-05-05 14:09 | 43.24793 | 18.00500 | 37083 ft | 466 kts | 150° |
| 2026-05-05 14:10 | 43.19394 | 18.05433 | 37082 ft | 466 kts | 150° |
| 2026-05-05 14:10 | 43.13979 | 18.10368 | 37075 ft | 470 kts | 150° |
| 2026-05-05 14:11 | 43.08541 | 18.15317 | 37082 ft | 468 kts | 150° |
| 2026-05-05 14:11 | 43.03123 | 18.20234 | 37098 ft | 467 kts | 150° |
| 2026-05-05 14:12 | 42.97710 | 18.25140 | 37092 ft | 467 kts | 150° |
| 2026-05-05 14:12 | 42.92285 | 18.30043 | 37089 ft | 469 kts | 150° |
| 2026-05-05 14:13 | 42.86847 | 18.34946 | 37099 ft | 469 kts | 150° |
| 2026-05-05 14:13 | 42.81434 | 18.39823 | 37112 ft | 469 kts | 150° |
| 2026-05-05 14:14 | 42.75991 | 18.44721 | 37119 ft | 469 kts | 150° |
| 2026-05-05 14:14 | 42.70535 | 18.49609 | 37113 ft | 470 kts | 150° |
| 2026-05-05 14:15 | 42.65018 | 18.54533 | 37120 ft | 472 kts | 150° |
| 2026-05-05 14:15 | 42.59564 | 18.59397 | 37119 ft | 472 kts | 150° |
| 2026-05-05 14:16 | 42.54071 | 18.64290 | 37108 ft | 472 kts | 150° |
| 2026-05-05 14:16 | 42.48586 | 18.69166 | 37113 ft | 472 kts | 150° |
| 2026-05-05 14:17 | 42.43065 | 18.74059 | 37111 ft | 475 kts | 150° |
| 2026-05-05 14:17 | 42.37531 | 18.78955 | 37107 ft | 476 kts | 150° |
| 2026-05-05 14:18 | 42.31996 | 18.83842 | 37109 ft | 475 kts | 150° |
| 2026-05-05 14:18 | 42.26455 | 18.88721 | 37113 ft | 475 kts | 150° |
| 2026-05-05 14:19 | 42.20917 | 18.93591 | 37109 ft | 476 kts | 151° |
| 2026-05-05 14:19 | 42.15360 | 18.98465 | 37102 ft | 477 kts | 151° |
| 2026-05-05 14:20 | 42.09794 | 19.03338 | 37101 ft | 477 kts | 151° |
| 2026-05-05 14:20 | 42.04231 | 19.08199 | 37106 ft | 477 kts | 151° |
| 2026-05-05 14:21 | 41.98665 | 19.13054 | 37102 ft | 480 kts | 151° |
| 2026-05-05 14:21 | 41.93057 | 19.17937 | 37110 ft | 481 kts | 151° |
| 2026-05-05 14:22 | 41.87439 | 19.22814 | 37107 ft | 481 kts | 151° |
| 2026-05-05 14:22 | 41.81819 | 19.27680 | 37105 ft | 481 kts | 151° |
| 2026-05-05 14:23 | 41.76358 | 19.32868 | 37096 ft | 487 kts | 140° |
| 2026-05-05 14:23 | 41.71477 | 19.39213 | 37104 ft | 489 kts | 138° |
| 2026-05-05 14:24 | 41.66617 | 19.45594 | 37105 ft | 489 kts | 139° |
| 2026-05-05 14:24 | 41.61772 | 19.51884 | 37109 ft | 489 kts | 139° |
| 2026-05-05 14:25 | 41.56855 | 19.58244 | 37106 ft | 489 kts | 139° |
| 2026-05-05 14:25 | 41.51965 | 19.64560 | 37104 ft | 489 kts | 139° |
| 2026-05-05 14:26 | 41.47062 | 19.70881 | 37107 ft | 491 kts | 138° |
| 2026-05-05 14:26 | 41.42185 | 19.77157 | 37113 ft | 490 kts | 138° |
| 2026-05-05 14:27 | 41.37268 | 19.83464 | 37114 ft | 492 kts | 138° |
| 2026-05-05 14:27 | 41.32342 | 19.89773 | 37110 ft | 492 kts | 138° |
| 2026-05-05 14:28 | 41.27392 | 19.96097 | 37109 ft | 494 kts | 139° |
| 2026-05-05 14:28 | 41.22425 | 20.02425 | 37090 ft | 495 kts | 138° |
| 2026-05-05 14:29 | 41.17461 | 20.08743 | 37091 ft | 494 kts | 138° |
| 2026-05-05 14:29 | 41.12490 | 20.15056 | 37100 ft | 494 kts | 138° |
| 2026-05-05 14:30 | 41.07520 | 20.21350 | 37092 ft | 493 kts | 138° |
| 2026-05-05 14:30 | 41.02553 | 20.27622 | 37109 ft | 493 kts | 138° |
| 2026-05-05 14:31 | 40.97589 | 20.33876 | 37107 ft | 493 kts | 138° |
| 2026-05-05 14:31 | 40.92629 | 20.40125 | 37082 ft | 493 kts | 138° |
| 2026-05-05 14:32 | 40.87667 | 20.46358 | 37080 ft | 492 kts | 138° |
| 2026-05-05 14:32 | 40.82697 | 20.52581 | 37085 ft | 492 kts | 138° |
| 2026-05-05 14:33 | 40.77734 | 20.58782 | 37087 ft | 491 kts | 138° |
| 2026-05-05 14:33 | 40.72762 | 20.64987 | 37078 ft | 492 kts | 138° |
| 2026-05-05 14:34 | 40.67774 | 20.71198 | 37075 ft | 494 kts | 138° |
| 2026-05-05 14:34 | 40.62777 | 20.77401 | 37069 ft | 493 kts | 138° |
| 2026-05-05 14:35 | 40.57783 | 20.83590 | 37073 ft | 492 kts | 138° |
| 2026-05-05 14:35 | 40.52800 | 20.89756 | 37063 ft | 492 kts | 138° |
| 2026-05-05 14:36 | 40.47802 | 20.95887 | 37062 ft | 491 kts | 140° |
| 2026-05-05 14:36 | 40.42671 | 21.01834 | 37048 ft | 492 kts | 140° |
| 2026-05-05 14:37 | 40.37510 | 21.07779 | 37067 ft | 496 kts | 140° |
| 2026-05-05 14:37 | 40.32327 | 21.13739 | 37057 ft | 496 kts | 140° |
| 2026-05-05 14:38 | 40.27132 | 21.19702 | 37065 ft | 496 kts | 140° |
| 2026-05-05 14:38 | 40.21975 | 21.25611 | 37062 ft | 496 kts | 140° |
| 2026-05-05 14:39 | 40.16771 | 21.31562 | 37041 ft | 497 kts | 140° |
| 2026-05-05 14:39 | 40.11567 | 21.37499 | 37049 ft | 497 kts | 140° |
| 2026-05-05 14:40 | 40.06375 | 21.43407 | 37047 ft | 495 kts | 140° |
| 2026-05-05 14:40 | 40.01189 | 21.49298 | 37045 ft | 494 kts | 140° |
| 2026-05-05 14:41 | 39.95988 | 21.55191 | 37056 ft | 495 kts | 140° |
| 2026-05-05 14:41 | 39.90792 | 21.61071 | 37042 ft | 494 kts | 140° |
| 2026-05-05 14:42 | 39.85601 | 21.66927 | 37048 ft | 494 kts | 140° |
| 2026-05-05 14:42 | 39.80398 | 21.72786 | 37050 ft | 494 kts | 141° |
| 2026-05-05 14:43 | 39.75180 | 21.78635 | 37048 ft | 495 kts | 140° |
| 2026-05-05 14:43 | 39.69977 | 21.84486 | 37042 ft | 495 kts | 140° |
| 2026-05-05 14:44 | 39.65634 | 21.89346 | 37037 ft | 495 kts | 140° |
| 2026-05-05 14:44 | 39.60418 | 21.95173 | 37027 ft | 496 kts | 140° |
| 2026-05-05 14:45 | 39.55189 | 22.01008 | 37028 ft | 498 kts | 140° |
| 2026-05-05 14:45 | 39.49925 | 22.06843 | 37021 ft | 495 kts | 141° |
| 2026-05-05 14:46 | 39.44648 | 22.12574 | 37021 ft | 495 kts | 141° |
| 2026-05-05 14:46 | 39.39371 | 22.18307 | 37029 ft | 495 kts | 141° |
| 2026-05-05 14:47 | 39.34087 | 22.24028 | 37027 ft | 496 kts | 141° |
| 2026-05-05 14:47 | 39.28793 | 22.29733 | 37027 ft | 496 kts | 141° |
| 2026-05-05 14:48 | 39.23500 | 22.35446 | 37034 ft | 496 kts | 141° |
| 2026-05-05 14:48 | 39.18216 | 22.41153 | 37035 ft | 496 kts | 141° |
| 2026-05-05 14:49 | 39.12925 | 22.46855 | 37046 ft | 495 kts | 141° |
| 2026-05-05 14:49 | 39.07638 | 22.52526 | 37021 ft | 494 kts | 141° |
| 2026-05-05 14:50 | 39.02334 | 22.58210 | 37036 ft | 497 kts | 141° |
| 2026-05-05 14:50 | 38.97032 | 22.63884 | 37031 ft | 494 kts | 141° |
| 2026-05-05 14:51 | 38.91747 | 22.69516 | 37034 ft | 494 kts | 141° |
| 2026-05-05 14:51 | 38.86490 | 22.75118 | 37041 ft | 494 kts | 141° |
| 2026-05-05 14:52 | 38.81187 | 22.80750 | 37056 ft | 494 kts | 141° |
| 2026-05-05 14:52 | 38.75890 | 22.86356 | 37046 ft | 494 kts | 141° |
| 2026-05-05 14:53 | 38.70592 | 22.91963 | 37036 ft | 494 kts | 141° |
| 2026-05-05 14:53 | 38.65283 | 22.97578 | 37042 ft | 495 kts | 141° |
| 2026-05-05 14:54 | 38.59977 | 23.03173 | 37041 ft | 494 kts | 141° |
| 2026-05-05 14:54 | 38.54677 | 23.08773 | 37027 ft | 495 kts | 141° |
| 2026-05-05 14:55 | 38.49363 | 23.14355 | 37031 ft | 495 kts | 141° |
| 2026-05-05 14:55 | 38.44049 | 23.19924 | 37039 ft | 494 kts | 141° |
| 2026-05-05 14:56 | 38.38733 | 23.25489 | 37036 ft | 495 kts | 141° |
| 2026-05-05 14:56 | 38.33410 | 23.31048 | 37040 ft | 495 kts | 141° |
| 2026-05-05 14:57 | 38.28081 | 23.36602 | 37033 ft | 495 kts | 141° |
| 2026-05-05 14:57 | 38.22753 | 23.42148 | 37036 ft | 495 kts | 141° |
| 2026-05-05 14:58 | 38.17431 | 23.47672 | 37024 ft | 494 kts | 141° |
| 2026-05-05 14:58 | 38.12147 | 23.53146 | 37030 ft | 494 kts | 141° |
| 2026-05-05 14:59 | 38.06773 | 23.58706 | 37029 ft | 494 kts | 141° |
| 2026-05-05 14:59 | 38.01442 | 23.64207 | 36999 ft | 494 kts | 141° |
| 2026-05-05 15:00 | 37.97010 | 23.68771 | 37004 ft | 494 kts | 141° |
| 2026-05-05 15:00 | 37.90776 | 23.75181 | 37062 ft | 494 kts | 141° |
| 2026-05-05 15:01 | 37.85436 | 23.80658 | 37056 ft | 495 kts | 141° |
| 2026-05-05 15:01 | 37.80120 | 23.86108 | 37052 ft | 495 kts | 141° |
| 2026-05-05 15:02 | 37.74769 | 23.91569 | 37050 ft | 494 kts | 141° |
| 2026-05-05 15:02 | 37.69419 | 23.97030 | 37043 ft | 495 kts | 142° |
| 2026-05-05 15:03 | 37.64029 | 24.02521 | 37050 ft | 495 kts | 142° |
| 2026-05-05 15:03 | 37.58706 | 24.07931 | 37063 ft | 495 kts | 141° |
| 2026-05-05 15:04 | 37.53343 | 24.13375 | 37054 ft | 495 kts | 142° |
| 2026-05-05 15:04 | 37.47978 | 24.18806 | 37054 ft | 495 kts | 142° |
| 2026-05-05 15:05 | 37.42596 | 24.24244 | 36891 ft | 497 kts | 142° |
| 2026-05-05 15:05 | 37.39903 | 24.26966 | 36676 ft | 497 kts | 142° |
| 2026-05-05 15:05 | 37.37207 | 24.29684 | 36435 ft | 498 kts | 142° |
| 2026-05-05 15:06 | 37.34505 | 24.32406 | 36185 ft | 497 kts | 142° |
| 2026-05-05 15:06 | 37.31806 | 24.35123 | 35932 ft | 496 kts | 142° |
| 2026-05-05 15:06 | 37.29120 | 24.37824 | 35684 ft | 494 kts | 142° |
| 2026-05-05 15:06 | 37.26444 | 24.40511 | 35462 ft | 492 kts | 142° |
| 2026-05-05 15:07 | 37.23772 | 24.43190 | 35205 ft | 491 kts | 142° |
| 2026-05-05 15:07 | 37.21108 | 24.45860 | 34966 ft | 489 kts | 142° |
| 2026-05-05 15:07 | 37.18456 | 24.48516 | 34725 ft | 487 kts | 142° |
| 2026-05-05 15:07 | 37.15812 | 24.51160 | 34466 ft | 485 kts | 142° |
| 2026-05-05 15:08 | 37.13179 | 24.53792 | 34227 ft | 484 kts | 142° |
| 2026-05-05 15:08 | 37.10551 | 24.56419 | 33973 ft | 482 kts | 142° |
| 2026-05-05 15:08 | 37.07930 | 24.59036 | 33709 ft | 480 kts | 142° |
| 2026-05-05 15:08 | 37.05325 | 24.61635 | 33434 ft | 478 kts | 142° |
| 2026-05-05 15:09 | 37.02724 | 24.64224 | 33175 ft | 477 kts | 142° |
| 2026-05-05 15:09 | 37.00133 | 24.66802 | 32919 ft | 475 kts | 141° |
| 2026-05-05 15:09 | 36.97550 | 24.69365 | 32655 ft | 473 kts | 141° |
| 2026-05-05 15:09 | 36.94977 | 24.71920 | 32392 ft | 471 kts | 141° |
| 2026-05-05 15:10 | 36.92414 | 24.74471 | 32099 ft | 469 kts | 141° |
| 2026-05-05 15:10 | 36.89870 | 24.77000 | 31703 ft | 466 kts | 141° |
| 2026-05-05 15:10 | 36.87336 | 24.79511 | 31229 ft | 463 kts | 141° |
| 2026-05-05 15:10 | 36.84812 | 24.81999 | 30734 ft | 461 kts | 141° |
| 2026-05-05 15:11 | 36.82136 | 24.84176 | 30217 ft | 459 kts | 152° |
| 2026-05-05 15:11 | 36.79360 | 24.86016 | 29619 ft | 456 kts | 153° |
| 2026-05-05 15:11 | 36.76548 | 24.87822 | 29047 ft | 453 kts | 153° |
| 2026-05-05 15:11 | 36.73768 | 24.89623 | 28536 ft | 448 kts | 153° |
| 2026-05-05 15:12 | 36.71024 | 24.91425 | 28062 ft | 443 kts | 153° |
| 2026-05-05 15:12 | 36.68316 | 24.93211 | 27604 ft | 438 kts | 153° |
| 2026-05-05 15:12 | 36.65636 | 24.94984 | 27136 ft | 433 kts | 153° |
| 2026-05-05 15:12 | 36.62992 | 24.96735 | 26673 ft | 429 kts | 153° |
| 2026-05-05 15:13 | 36.60363 | 24.98475 | 26207 ft | 427 kts | 153° |
| 2026-05-05 15:13 | 36.57742 | 25.00209 | 25764 ft | 425 kts | 153° |
| 2026-05-05 15:13 | 36.55135 | 25.01930 | 25360 ft | 423 kts | 153° |
| 2026-05-05 15:13 | 36.52541 | 25.03639 | 24923 ft | 422 kts | 153° |
| 2026-05-05 15:14 | 36.49951 | 25.05344 | 24460 ft | 421 kts | 153° |
| 2026-05-05 15:14 | 36.47359 | 25.07048 | 23987 ft | 420 kts | 153° |
| 2026-05-05 15:14 | 36.44783 | 25.08743 | 23533 ft | 420 kts | 153° |
| 2026-05-05 15:14 | 36.42204 | 25.10435 | 23016 ft | 418 kts | 153° |
| 2026-05-05 15:15 | 36.39639 | 25.12117 | 22535 ft | 416 kts | 153° |
| 2026-05-05 15:15 | 36.37085 | 25.13790 | 22057 ft | 414 kts | 153° |
| 2026-05-05 15:15 | 36.34548 | 25.15452 | 21584 ft | 410 kts | 153° |
| 2026-05-05 15:15 | 36.32033 | 25.17099 | 21128 ft | 407 kts | 153° |
| 2026-05-05 15:16 | 36.29543 | 25.18730 | 20686 ft | 402 kts | 153° |
| 2026-05-05 15:16 | 36.27081 | 25.20340 | 20245 ft | 398 kts | 153° |
| 2026-05-05 15:16 | 36.24550 | 25.21702 | 19574 ft | 397 kts | 167° |
| 2026-05-05 15:16 | 36.21862 | 25.22390 | 18943 ft | 392 kts | 173° |
| 2026-05-05 15:17 | 36.19188 | 25.22927 | 18330 ft | 387 kts | 173° |
| 2026-05-05 15:17 | 36.16543 | 25.23459 | 17603 ft | 382 kts | 173° |
| 2026-05-05 15:17 | 36.13944 | 25.24004 | 16850 ft | 378 kts | 172° |
| 2026-05-05 15:17 | 36.11369 | 25.24560 | 16141 ft | 372 kts | 172° |
| 2026-05-05 15:18 | 36.08837 | 25.25117 | 15463 ft | 368 kts | 172° |
| 2026-05-05 15:18 | 36.06332 | 25.25672 | 14777 ft | 363 kts | 172° |
| 2026-05-05 15:18 | 36.03857 | 25.26222 | 14116 ft | 359 kts | 172° |
| 2026-05-05 15:18 | 36.01409 | 25.26760 | 13417 ft | 355 kts | 171° |
| 2026-05-05 15:19 | 35.98996 | 25.27289 | 12722 ft | 350 kts | 171° |
| 2026-05-05 15:19 | 35.96646 | 25.27801 | 12172 ft | 346 kts | 171° |
| 2026-05-05 15:19 | 35.94285 | 25.28316 | 11831 ft | 341 kts | 171° |
| 2026-05-05 15:19 | 35.91972 | 25.28823 | 11522 ft | 334 kts | 171° |
| 2026-05-05 15:20 | 35.89701 | 25.29322 | 11199 ft | 329 kts | 171° |
| 2026-05-05 15:20 | 35.87467 | 25.29812 | 10889 ft | 324 kts | 171° |
| 2026-05-05 15:20 | 35.85269 | 25.30294 | 10585 ft | 318 kts | 171° |
| 2026-05-05 15:20 | 35.83111 | 25.30769 | 10336 ft | 312 kts | 171° |
| 2026-05-05 15:21 | 35.80983 | 25.31235 | 10136 ft | 308 kts | 171° |
| 2026-05-05 15:21 | 35.78905 | 25.31688 | 9945 ft | 298 kts | 171° |
| 2026-05-05 15:21 | 35.76898 | 25.32127 | 9807 ft | 287 kts | 171° |
| 2026-05-05 15:21 | 35.74968 | 25.32548 | 9654 ft | 277 kts | 171° |
| 2026-05-05 15:22 | 35.73090 | 25.32959 | 9390 ft | 272 kts | 170° |
| 2026-05-05 15:22 | 35.71234 | 25.33364 | 9066 ft | 270 kts | 170° |
| 2026-05-05 15:22 | 35.69385 | 25.33767 | 8723 ft | 269 kts | 170° |
| 2026-05-05 15:22 | 35.67544 | 25.34168 | 8410 ft | 268 kts | 170° |
| 2026-05-05 15:23 | 35.65711 | 25.34569 | 8121 ft | 267 kts | 170° |
| 2026-05-05 15:23 | 35.63886 | 25.34968 | 7844 ft | 266 kts | 169° |
| 2026-05-05 15:23 | 35.62087 | 25.35360 | 7575 ft | 265 kts | 169° |
| 2026-05-05 15:23 | 35.60252 | 25.35759 | 7239 ft | 264 kts | 169° |
| 2026-05-05 15:24 | 35.58448 | 25.36152 | 6918 ft | 263 kts | 169° |
| 2026-05-05 15:24 | 35.56647 | 25.36543 | 6593 ft | 263 kts | 169° |
| 2026-05-05 15:24 | 35.54850 | 25.36935 | 6268 ft | 261 kts | 169° |
| 2026-05-05 15:24 | 35.53073 | 25.37321 | 5980 ft | 259 kts | 169° |
| 2026-05-05 15:25 | 35.51330 | 25.37699 | 5724 ft | 256 kts | 169° |
| 2026-05-05 15:25 | 35.49577 | 25.38082 | 5469 ft | 255 kts | 169° |
| 2026-05-05 15:25 | 35.47816 | 25.38467 | 5222 ft | 254 kts | 170° |
| 2026-05-05 15:25 | 35.46088 | 25.38841 | 4968 ft | 251 kts | 170° |
| 2026-05-05 15:26 | 35.44391 | 25.39204 | 4717 ft | 251 kts | 173° |
| 2026-05-05 15:26 | 35.42670 | 25.38971 | 4441 ft | 245 kts | 206° |
| 2026-05-05 15:26 | 35.41331 | 25.37813 | 4189 ft | 237 kts | 232° |
| 2026-05-05 15:26 | 35.40506 | 25.36110 | 3981 ft | 231 kts | 255° |
| 2026-05-05 15:27 | 35.40313 | 25.34192 | 3946 ft | 227 kts | 278° |
| 2026-05-05 15:27 | 35.40747 | 25.32367 | 3956 ft | 222 kts | 299° |
| 2026-05-05 15:27 | 35.41690 | 25.30898 | 3980 ft | 219 kts | 320° |
| 2026-05-05 15:27 | 35.42974 | 25.29875 | 3983 ft | 222 kts | 337° |
| 2026-05-05 15:28 | 35.44490 | 25.29602 | 3981 ft | 224 kts | 6° |
| 2026-05-05 15:28 | 35.45981 | 25.30177 | 3992 ft | 227 kts | 24° |
| 2026-05-05 15:28 | 35.47190 | 25.31424 | 3970 ft | 233 kts | 52° |
| 2026-05-05 15:28 | 35.47792 | 25.33283 | 3980 ft | 239 kts | 81° |
| 2026-05-05 15:29 | 35.47600 | 25.35321 | 3979 ft | 246 kts | 110° |
| 2026-05-05 15:29 | 35.46630 | 25.37036 | 3980 ft | 249 kts | 137° |
| 2026-05-05 15:29 | 35.45216 | 25.38252 | 3988 ft | 250 kts | 149° |
| 2026-05-05 15:29 | 35.43718 | 25.39335 | 3985 ft | 250 kts | 149° |
| 2026-05-05 15:30 | 35.42230 | 25.40437 | 3981 ft | 250 kts | 148° |
| 2026-05-05 15:30 | 35.40776 | 25.41542 | 3972 ft | 240 kts | 148° |
| 2026-05-05 15:30 | 35.39405 | 25.42599 | 3953 ft | 229 kts | 148° |
| 2026-05-05 15:30 | 35.38082 | 25.43583 | 3966 ft | 212 kts | 155° |
| 2026-05-05 15:31 | 35.36705 | 25.43853 | 3991 ft | 200 kts | 189° |
| 2026-05-05 15:31 | 35.35506 | 25.43108 | 3979 ft | 193 kts | 232° |
| 2026-05-05 15:31 | 35.34905 | 25.41674 | 3938 ft | 189 kts | 250° |
| 2026-05-05 15:31 | 35.34381 | 25.40200 | 3750 ft | 188 kts | 249° |
| 2026-05-05 15:32 | 35.33850 | 25.38770 | 3532 ft | 185 kts | 249° |
| 2026-05-05 15:32 | 35.33314 | 25.37351 | 3265 ft | 184 kts | 248° |
| 2026-05-05 15:32 | 35.32823 | 25.35905 | 2948 ft | 183 kts | 258° |
| 2026-05-05 15:32 | 35.32791 | 25.34385 | 2672 ft | 177 kts | 278° |
| 2026-05-05 15:33 | 35.32913 | 25.32887 | 2373 ft | 176 kts | 278° |
| 2026-05-05 15:33 | 35.33027 | 25.31390 | 2084 ft | 176 kts | 277° |
| 2026-05-05 15:33 | 35.33126 | 25.29967 | 2025 ft | 160 kts | 277° |
| 2026-05-05 15:33 | 35.33219 | 25.28618 | 1925 ft | 155 kts | 278° |
| 2026-05-05 15:34 | 35.33301 | 25.27369 | 1725 ft | 138 kts | 276° |
| 2026-05-05 15:34 | 35.33381 | 25.26275 | 1470 ft | 127 kts | 277° |
| 2026-05-05 15:34 | 35.33432 | 25.25556 | 1328 ft | 126 kts | 278° |
| 2026-05-05 15:34 | 35.33514 | 25.24489 | 1129 ft | 128 kts | 279° |
| 2026-05-05 15:35 | 35.33587 | 25.23384 | 919 ft | 128 kts | 280° |
| 2026-05-05 15:35 | 35.33659 | 25.22307 | 715 ft | 129 kts | 279° |
| 2026-05-05 15:35 | 35.33757 | 25.20874 | 418 ft | 125 kts | 279° |
| 2026-05-05 15:35 | 35.33812 | 25.20174 | 304 ft | 125 kts | 279° |
| 2026-05-05 15:36 | 35.33891 | 25.19119 | 160 ft | 125 kts | 279° |
| 2026-05-05 15:36 | 35.33970 | 25.18089 | 100 ft | 111 kts | 277° |
| 2026-05-05 15:36 | 35.34023 | 25.17394 | 96 ft | 56 kts | 275° |
| 2026-05-05 15:36 | 35.34012 | 25.17150 | 97 ft | 18 kts | 244° |
| 2026-05-05 15:37 | 35.33970 | 25.17047 | 96 ft | 7 kts | 228° |
| 2026-05-05 15:37 | 35.33941 | 25.17079 | 99 ft | 5 kts | 93° |
| 2026-05-05 15:37 | 35.33938 | 25.17134 | 95 ft | 8 kts | 94° |
| 2026-05-05 15:37 | 35.33933 | 25.17211 | 96 ft | 10 kts | 96° |
| 2026-05-05 15:38 | 35.33925 | 25.17309 | 98 ft | 13 kts | 94° |
| 2026-05-05 15:38 | 35.33917 | 25.17426 | 96 ft | 15 kts | 94° |
| 2026-05-05 15:38 | 35.33910 | 25.17529 | 97 ft | 12 kts | 95° |
| 2026-05-05 15:38 | 35.33906 | 25.17600 | 99 ft | 6 kts | 94° |
| 2026-05-05 15:39 | 35.33866 | 25.17622 | 96 ft | 8 kts | 186° |
| 2026-05-05 15:39 | 35.33845 | 25.17586 | 100 ft | 4 kts | 280° |
| 2026-05-05 15:39 | 35.33861 | 25.17557 | 97 ft | 4 kts | 316° |
| 2026-05-05 15:39 | 35.33868 | 25.17550 | 97 ft | 0 kts | 314° |